Time;durP1;ratioP1;P1;durP2;ratioP2;P2;SDS_P1;SDS_P2;PMS_P1;PMS_P2;Temp;Humidity;BMP_temperature;BMP_pressure;BME280_temperature;BME280_humidity;BME280_pressure;Samples;Min_cycle;Max_cycle;Signal;HPM_P1;HPM_P2
2023/09/12 00:00:20;;;;;;;11.85;9.35;;;27.50;83.20;;;;;;5038584;28;20051;-71
2023/09/12 00:02:46;;;;;;;10.32;9.18;;;27.60;83.40;;;;;;5032095;28;20041;-71
2023/09/12 00:05:14;;;;;;;9.45;8.40;;;27.70;83.80;;;;;;5035424;28;20044;-71
2023/09/12 00:07:40;;;;;;;10.73;9.35;;;27.70;83.70;;;;;;5051950;28;20040;-71
2023/09/12 00:10:06;;;;;;;13.48;9.35;;;27.60;83.90;;;;;;5018988;28;20045;-72
2023/09/12 00:12:32;;;;;;;10.35;8.85;;;27.60;83.80;;;;;;5025618;28;20033;-72
2023/09/12 00:14:58;;;;;;;11.73;8.80;;;27.50;83.60;;;;;;5051761;28;20052;-70
2023/09/12 00:17:26;;;;;;;10.40;9.18;;;27.80;84.30;;;;;;5033780;28;20513;-71
2023/09/12 00:19:52;;;;;;;9.80;8.48;;;27.70;83.50;;;;;;5044062;28;20052;-71
2023/09/12 00:22:18;;;;;;;9.68;8.68;;;27.60;83.50;;;;;;5053101;28;20370;-71
2023/09/12 00:24:45;;;;;;;9.50;7.93;;;27.80;83.10;;;;;;5039495;28;20063;-71
2023/09/12 00:27:11;;;;;;;10.60;8.57;;;27.70;83.40;;;;;;5021050;28;20037;-72
2023/09/12 00:29:37;;;;;;;15.55;9.68;;;27.70;83.60;;;;;;5052813;28;20102;-71
2023/09/12 00:32:03;;;;;;;11.55;10.07;;;27.30;83.40;;;;;;5034667;28;20499;-72
2023/09/12 00:34:31;;;;;;;12.02;8.80;;;27.80;83.40;;;;;;5053532;28;20110;-71
2023/09/12 00:36:59;;;;;;;10.75;8.82;;;27.80;83.90;;;;;;5036297;28;20428;-69
2023/09/12 00:39:28;;;;;;;10.60;9.32;;;26.70;83.30;;;;;;5053820;28;20051;-69
2023/09/12 00:41:54;;;;;;;11.90;9.48;;;26.80;83.20;;;;;;5056444;28;20595;-72
2023/09/12 00:44:20;;;;;;;10.50;9.35;;;27.60;83.80;;;;;;5033786;28;20095;-72
2023/09/12 00:46:46;;;;;;;10.88;9.23;;;27.70;83.80;;;;;;5001591;28;20041;-72
2023/09/12 00:49:12;;;;;;;13.55;10.23;;;27.80;83.90;;;;;;5033877;28;20055;-62
2023/09/12 00:51:38;;;;;;;11.48;10.27;;;27.40;83.60;;;;;;5041639;28;20056;-71
2023/09/12 00:54:04;;;;;;;11.73;9.90;;;27.80;83.80;;;;;;5040580;28;20052;-72
2023/09/12 00:56:30;;;;;;;12.85;10.52;;;27.60;83.50;;;;;;5069049;28;20136;-71
2023/09/12 00:58:56;;;;;;;11.77;10.50;;;27.70;83.60;;;;;;5038880;28;20051;-69
2023/09/12 01:01:25;;;;;;;10.95;8.90;;;27.60;83.60;;;;;;5009837;28;20045;-72
2023/09/12 01:03:51;;;;;;;9.52;8.43;;;27.50;83.90;;;;;;5034717;28;20053;-72
2023/09/12 01:06:19;;;;;;;9.95;8.80;;;27.80;83.80;;;;;;5067528;28;20558;-71
2023/09/12 01:08:46;;;;;;;11.02;8.40;;;27.50;84.00;;;;;;5023295;28;20563;-71
2023/09/12 01:11:13;;;;;;;10.30;8.68;;;27.70;84.10;;;;;;5043995;28;20082;-72
2023/09/12 01:13:38;;;;;;;13.13;8.70;;;27.60;83.80;;;;;;5087702;28;20044;-72
2023/09/12 01:16:04;;;;;;;10.07;8.68;;;28.00;84.10;;;;;;5031770;28;20043;-72
2023/09/12 01:18:31;;;;;;;10.10;9.05;;;27.80;84.40;;;;;;5082230;28;20056;-72
2023/09/12 01:21:12;;;;;;;9.35;7.93;;;27.90;84.60;;;;;;5033968;28;20045;-71
2023/09/12 01:23:49;;;;;;;10.65;9.52;;;27.70;83.00;;;;;;5051750;28;20049;-71
2023/09/12 01:26:39;;;;;;;11.10;8.63;;;28.10;83.10;;;;;;5053571;28;20049;-70
2023/09/12 01:29:06;;;;;;;12.20;8.45;;;27.50;84.30;;;;;;5058869;28;20505;-70
2023/09/12 01:31:33;;;;;;;10.95;8.18;;;27.60;84.10;;;;;;5033538;28;20052;-71
2023/09/12 01:34:09;;;;;;;9.65;7.80;;;27.70;84.00;;;;;;5054426;28;20325;-71
2023/09/12 01:36:35;;;;;;;11.98;8.45;;;27.80;84.50;;;;;;5066233;28;20056;-72
2023/09/12 01:39:02;;;;;;;11.32;8.52;;;27.70;84.40;;;;;;5067122;28;20088;-72
2023/09/12 01:41:28;;;;;;;9.98;8.57;;;27.80;84.10;;;;;;5057946;28;20041;-71
2023/09/12 01:43:54;;;;;;;9.75;8.60;;;27.80;84.00;;;;;;5059956;28;20128;-71
2023/09/12 01:46:21;;;;;;;10.23;8.52;;;27.80;84.00;;;;;;5068095;28;20122;-71
2023/09/12 01:48:47;;;;;;;9.15;8.20;;;27.60;84.10;;;;;;5034418;28;20051;-73
2023/09/12 01:51:13;;;;;;;9.68;8.23;;;27.80;84.00;;;;;;5037616;28;20048;-71
2023/09/12 01:53:39;;;;;;;11.43;9.23;;;28.00;85.10;;;;;;5022003;28;20115;-72
2023/09/12 01:56:05;;;;;;;10.50;9.40;;;27.60;84.00;;;;;;5018789;28;20068;-71
2023/09/12 01:58:32;;;;;;;9.65;8.50;;;27.50;83.40;;;;;;5036778;28;20057;-72
2023/09/12 02:00:58;;;;;;;10.88;8.85;;;27.60;84.70;;;;;;5053445;28;20044;-70
2023/09/12 02:03:24;;;;;;;9.40;8.30;;;27.70;83.90;;;;;;5037605;28;20075;-72
2023/09/12 02:05:50;;;;;;;10.63;8.63;;;27.70;84.40;;;;;;5060054;28;20124;-63
2023/09/12 02:08:16;;;;;;;9.50;8.30;;;27.40;83.80;;;;;;5074137;28;20465;-62
2023/09/12 02:10:42;;;;;;;10.65;8.40;;;27.70;83.90;;;;;;5088583;28;20047;-63
2023/09/12 02:13:08;;;;;;;9.73;8.50;;;27.40;83.90;;;;;;5024497;28;20049;-71
2023/09/12 02:15:34;;;;;;;14.23;9.00;;;27.50;83.90;;;;;;5037242;28;20044;-72
2023/09/12 02:18:03;;;;;;;9.07;8.10;;;27.80;83.60;;;;;;5036871;28;20041;-70
2023/09/12 02:20:29;;;;;;;9.98;8.52;;;27.80;84.50;;;;;;5037377;28;20131;-72
2023/09/12 02:22:55;;;;;;;11.00;8.07;;;27.40;84.00;;;;;;5004080;28;20063;-71
2023/09/12 02:25:21;;;;;;;9.25;7.78;;;27.40;83.80;;;;;;5076253;28;20078;-72
2023/09/12 02:27:46;;;;;;;10.57;8.75;;;27.70;84.20;;;;;;5070468;28;20132;-72
2023/09/12 02:30:12;;;;;;;9.32;8.13;;;27.50;84.50;;;;;;5037205;28;20040;-71
2023/09/12 02:32:38;;;;;;;10.02;8.75;;;27.80;85.30;;;;;;5053460;28;20037;-71
2023/09/12 02:35:04;;;;;;;10.40;9.07;;;28.30;85.20;;;;;;5036805;28;20049;-72
2023/09/12 02:37:31;;;;;;;9.75;8.40;;;27.70;84.80;;;;;;5044484;28;20406;-72
2023/09/12 02:39:56;;;;;;;9.57;8.57;;;27.70;84.30;;;;;;5032016;28;20134;-72
2023/09/12 02:42:24;;;;;;;11.13;8.23;;;27.60;84.40;;;;;;5053347;28;20107;-71
2023/09/12 02:44:50;;;;;;;8.98;8.07;;;27.60;84.30;;;;;;5036644;28;20059;-72
2023/09/12 02:47:15;;;;;;;9.75;8.63;;;27.50;84.20;;;;;;5017763;28;20036;-71
2023/09/12 02:49:41;;;;;;;9.52;8.20;;;27.40;83.90;;;;;;5056705;28;20051;-70
2023/09/12 02:52:08;;;;;;;10.63;8.23;;;27.50;84.30;;;;;;5044461;28;20045;-70
2023/09/12 02:54:33;;;;;;;11.95;8.50;;;27.50;84.20;;;;;;5033512;28;20047;-72
2023/09/12 02:56:59;;;;;;;9.98;8.98;;;27.40;84.10;;;;;;5030521;28;20128;-72
2023/09/12 02:59:25;;;;;;;11.02;8.48;;;27.50;84.20;;;;;;5044045;28;20048;-72
2023/09/12 03:01:52;;;;;;;9.43;8.18;;;27.60;84.20;;;;;;5053176;28;20052;-72
2023/09/12 03:04:20;;;;;;;11.25;8.23;;;27.60;84.20;;;;;;5053883;28;20466;-70
2023/09/12 03:06:46;;;;;;;11.20;9.18;;;27.30;84.00;;;;;;5052885;28;20127;-70
2023/09/12 03:09:14;;;;;;;11.55;10.00;;;27.60;84.30;;;;;;5036680;28;20040;-70
2023/09/12 03:11:39;;;;;;;10.98;9.85;;;27.50;84.40;;;;;;5027710;28;20126;-71
2023/09/12 03:14:06;;;;;;;11.85;9.32;;;27.60;84.50;;;;;;5034554;28;20044;-70
2023/09/12 03:16:32;;;;;;;10.63;9.52;;;27.50;84.30;;;;;;5039047;28;20057;-69
2023/09/12 03:18:58;;;;;;;12.20;10.18;;;27.40;84.10;;;;;;5056136;28;20060;-68
2023/09/12 03:21:24;;;;;;;10.52;9.05;;;27.40;84.10;;;;;;5039674;28;20052;-70
2023/09/12 03:23:51;;;;;;;11.25;9.23;;;27.30;84.50;;;;;;5057622;28;20352;-69
2023/09/12 03:26:17;;;;;;;12.07;10.35;;;27.50;84.80;;;;;;5083200;28;20205;-71
2023/09/12 03:28:43;;;;;;;11.40;10.20;;;27.40;83.90;;;;;;5039727;28;20444;-71
2023/09/12 03:31:17;;;;;;;10.57;9.38;;;27.60;84.30;;;;;;5063901;28;20129;-69
2023/09/12 03:33:47;;;;;;;10.52;9.40;;;27.20;84.30;;;;;;5003784;28;20049;-70
2023/09/12 03:36:16;;;;;;;12.52;9.85;;;27.40;84.30;;;;;;5047838;28;20140;-70
2023/09/12 03:38:42;;;;;;;10.50;9.10;;;27.40;84.80;;;;;;5039637;28;20041;-70
2023/09/12 03:41:08;;;;;;;11.40;9.88;;;27.40;84.50;;;;;;5022548;28;20044;-70
2023/09/12 03:43:34;;;;;;;11.18;9.90;;;27.40;85.10;;;;;;5073636;28;20036;-69
2023/09/12 03:46:03;;;;;;;11.57;8.75;;;27.40;84.10;;;;;;5054236;28;20036;-70
2023/09/12 03:48:33;;;;;;;12.30;9.43;;;27.20;84.20;;;;;;5059184;28;20123;-71
2023/09/12 03:50:58;;;;;;;11.50;9.95;;;27.40;83.80;;;;;;5068170;28;20086;-70
2023/09/12 03:53:26;;;;;;;10.70;9.15;;;27.20;84.30;;;;;;5039594;28;20076;-71
2023/09/12 03:55:52;;;;;;;9.80;8.77;;;27.50;84.30;;;;;;5036348;28;20052;-72
2023/09/12 03:58:18;;;;;;;11.00;9.45;;;27.20;83.90;;;;;;5046656;28;20064;-71
2023/09/12 04:00:44;;;;;;;10.32;8.40;;;27.30;84.20;;;;;;5055163;28;20044;-71
2023/09/12 04:03:10;;;;;;;10.52;8.82;;;27.20;84.00;;;;;;5055501;28;20175;-71
2023/09/12 04:05:36;;;;;;;10.25;9.23;;;27.50;84.30;;;;;;5033992;28;20505;-71
2023/09/12 04:08:03;;;;;;;9.80;8.65;;;27.50;84.00;;;;;;5035261;28;20044;-70
2023/09/12 04:10:28;;;;;;;10.02;8.82;;;27.10;84.40;;;;;;5052946;28;20051;-70
2023/09/12 04:12:54;;;;;;;11.10;9.13;;;27.50;84.30;;;;;;5008935;28;20385;-71
2023/09/12 04:15:20;;;;;;;10.60;8.57;;;27.00;83.90;;;;;;5038291;28;20505;-71
2023/09/12 04:17:46;;;;;;;11.10;9.27;;;27.20;84.20;;;;;;5019499;28;20098;-71
2023/09/12 04:20:15;;;;;;;11.57;9.32;;;27.10;83.70;;;;;;5017746;28;20052;-71
2023/09/12 04:22:44;;;;;;;10.25;9.13;;;27.00;83.20;;;;;;5078917;28;20037;-70
2023/09/12 04:25:10;;;;;;;11.10;9.90;;;27.20;84.60;;;;;;5053022;28;20049;-71
2023/09/12 04:27:40;;;;;;;10.80;9.10;;;27.20;84.00;;;;;;5020469;28;20045;-70
2023/09/12 04:30:07;;;;;;;10.65;9.25;;;27.80;85.00;;;;;;5037269;28;20090;-71
2023/09/12 04:32:33;;;;;;;9.77;8.77;;;27.00;83.50;;;;;;5017096;28;20033;-71
2023/09/12 04:35:00;;;;;;;9.85;8.73;;;27.30;84.30;;;;;;5033723;28;20495;-71
2023/09/12 04:37:26;;;;;;;10.38;9.30;;;27.40;84.70;;;;;;5042885;28;20059;-70
2023/09/12 04:39:52;;;;;;;10.52;9.35;;;27.00;83.70;;;;;;5033015;28;20135;-71
2023/09/12 04:42:18;;;;;;;11.73;9.75;;;26.80;83.90;;;;;;5086948;28;20107;-71
2023/09/12 04:44:44;;;;;;;10.82;9.40;;;27.30;85.10;;;;;;5052132;28;20068;-72
2023/09/12 04:47:09;;;;;;;11.05;9.82;;;27.20;84.60;;;;;;5087339;28;20062;-70
2023/09/12 04:49:35;;;;;;;11.50;10.30;;;27.40;84.50;;;;;;5037592;28;20422;-71
2023/09/12 04:52:01;;;;;;;10.50;9.40;;;27.30;84.10;;;;;;5072540;28;20037;-70
2023/09/12 04:54:30;;;;;;;11.88;10.05;;;27.10;84.10;;;;;;5032308;28;20120;-71
2023/09/12 04:56:59;;;;;;;12.02;8.90;;;27.10;84.00;;;;;;5052953;28;20045;-71
2023/09/12 04:59:25;;;;;;;12.43;9.38;;;27.20;84.00;;;;;;5017584;28;20048;-71
2023/09/12 05:01:51;;;;;;;11.27;9.68;;;27.30;84.00;;;;;;5034111;28;20405;-71
2023/09/12 05:04:17;;;;;;;11.55;9.77;;;27.10;84.00;;;;;;5045476;28;20041;-71
2023/09/12 05:06:43;;;;;;;13.20;9.65;;;27.00;83.90;;;;;;5077075;28;20041;-70
2023/09/12 05:09:10;;;;;;;11.10;9.88;;;27.10;83.70;;;;;;5077180;28;20398;-72
2023/09/12 05:11:36;;;;;;;13.43;9.60;;;27.30;84.00;;;;;;5041186;28;20041;-71
2023/09/12 05:14:03;;;;;;;10.20;8.98;;;27.20;84.50;;;;;;5057532;28;20068;-71
2023/09/12 05:16:30;;;;;;;12.77;8.43;;;26.90;83.80;;;;;;5031023;28;20144;-72
2023/09/12 05:18:56;;;;;;;9.90;8.30;;;27.30;84.20;;;;;;5052751;28;20084;-71
2023/09/12 05:21:21;;;;;;;10.25;8.40;;;27.10;83.80;;;;;;5040697;28;20567;-71
2023/09/12 05:23:47;;;;;;;11.63;8.70;;;27.00;84.00;;;;;;5057593;28;20083;-71
2023/09/12 05:26:13;;;;;;;12.05;9.63;;;27.50;85.20;;;;;;5039560;28;20154;-70
2023/09/12 05:28:39;;;;;;;9.88;8.68;;;27.10;84.10;;;;;;5041685;28;20125;-71
2023/09/12 05:31:05;;;;;;;10.93;8.77;;;27.00;84.00;;;;;;5059697;28;20505;-71
2023/09/12 05:33:31;;;;;;;10.48;8.48;;;27.00;83.90;;;;;;5024347;28;20052;-71
2023/09/12 05:35:57;;;;;;;9.48;8.40;;;27.20;84.00;;;;;;5040952;28;20076;-72
2023/09/12 05:38:24;;;;;;;9.85;8.10;;;26.90;84.10;;;;;;5051262;28;20071;-69
2023/09/12 05:40:49;;;;;;;9.57;8.57;;;26.90;83.40;;;;;;5029931;28;20137;-63
2023/09/12 05:43:16;;;;;;;11.10;8.98;;;27.20;84.10;;;;;;5039818;28;20471;-62
2023/09/12 05:45:43;;;;;;;10.95;8.35;;;27.30;84.40;;;;;;5024317;28;20057;-71
2023/09/12 05:48:09;;;;;;;10.77;8.98;;;27.30;84.40;;;;;;5014749;28;20040;-71
2023/09/12 05:50:38;;;;;;;11.20;8.52;;;27.20;84.10;;;;;;5059438;28;20049;-71
2023/09/12 05:53:04;;;;;;;9.88;8.35;;;26.80;82.50;;;;;;5059947;28;20436;-72
2023/09/12 05:55:30;;;;;;;11.73;9.02;;;27.40;84.80;;;;;;5076692;28;20048;-70
2023/09/12 05:57:56;;;;;;;10.60;8.10;;;27.20;84.40;;;;;;5044009;28;20059;-72
2023/09/12 06:00:22;;;;;;;10.93;9.38;;;27.30;84.80;;;;;;5018292;28;20044;-70
2023/09/12 06:02:48;;;;;;;10.25;8.70;;;27.10;84.40;;;;;;5060413;28;20048;-72
2023/09/12 06:05:17;;;;;;;9.23;8.23;;;27.20;84.50;;;;;;5059046;28;20052;-70
2023/09/12 06:07:43;;;;;;;9.63;8.63;;;27.00;84.10;;;;;;5058644;28;20132;-71
2023/09/12 06:10:10;;;;;;;9.70;8.48;;;27.20;84.00;;;;;;5064893;28;20040;-70
2023/09/12 06:12:36;;;;;;;12.05;9.70;;;27.20;84.10;;;;;;5048064;28;20486;-72
2023/09/12 06:15:03;;;;;;;10.50;8.50;;;27.10;84.00;;;;;;5057999;28;20098;-72
2023/09/12 06:17:30;;;;;;;10.63;8.32;;;27.10;84.00;;;;;;5069140;28;20041;-67
2023/09/12 06:19:59;;;;;;;10.13;8.23;;;27.10;83.90;;;;;;5073022;28;20075;-69
2023/09/12 06:22:25;;;;;;;9.43;7.95;;;28.00;83.90;;;;;;5037242;28;20095;-70
2023/09/12 06:25:03;;;;;;;10.15;8.15;;;27.40;84.30;;;;;;5036987;28;20103;-66
2023/09/12 06:27:31;;;;;;;10.18;8.18;;;27.20;84.40;;;;;;5042140;28;20057;-67
2023/09/12 06:29:58;;;;;;;9.90;8.57;;;27.50;83.60;;;;;;5034305;28;20079;-71
2023/09/12 06:32:23;;;;;;;23.45;18.88;;;27.40;85.20;;;;;;5070532;28;20073;-70
2023/09/12 06:34:49;;;;;;;25.27;20.58;;;27.50;83.50;;;;;;5020729;28;20040;-70
2023/09/12 06:37:15;;;;;;;27.30;22.35;;;27.50;82.80;;;;;;5055198;28;20060;-70
2023/09/12 06:39:41;;;;;;;25.35;22.33;;;27.30;82.30;;;;;;5051842;28;20116;-70
2023/09/12 06:42:08;;;;;;;22.90;20.50;;;27.30;82.30;;;;;;5060825;28;20120;-70
2023/09/12 06:44:34;;;;;;;22.77;20.45;;;27.10;82.70;;;;;;5039065;28;20053;-70
2023/09/12 06:47:00;;;;;;;26.40;22.33;;;27.20;82.80;;;;;;5054270;28;20051;-71
2023/09/12 06:49:26;;;;;;;27.10;22.50;;;27.00;83.10;;;;;;5065845;28;20111;-68
2023/09/12 06:51:52;;;;;;;24.30;21.73;;;26.70;82.90;;;;;;5036267;28;20044;-67
2023/09/12 06:54:18;;;;;;;25.70;22.25;;;26.50;83.80;;;;;;5070596;28;20041;-69
2023/09/12 06:56:44;;;;;;;23.73;21.25;;;25.60;83.10;;;;;;5070033;28;20037;-70
2023/09/12 06:59:11;;;;;;;23.30;20.98;;;26.40;85.00;;;;;;5036120;28;20163;-70
2023/09/12 07:01:37;;;;;;;21.00;18.90;;;26.30;84.60;;;;;;5071965;28;20036;-68
2023/09/12 07:04:03;;;;;;;23.00;20.70;;;26.50;85.60;;;;;;5074451;28;20481;-71
2023/09/12 07:06:29;;;;;;;22.75;20.42;;;25.90;84.90;;;;;;5074385;28;20489;-70
2023/09/12 07:08:55;;;;;;;21.88;19.67;;;25.90;85.90;;;;;;5074088;28;20044;-70
2023/09/12 07:11:24;;;;;;;22.17;19.60;;;25.90;85.60;;;;;;5061584;28;20398;-70
2023/09/12 07:13:50;;;;;;;26.33;22.10;;;25.70;85.80;;;;;;5064928;28;20044;-70
2023/09/12 07:16:16;;;;;;;27.25;23.60;;;26.00;86.50;;;;;;5074049;28;20044;-71
2023/09/12 07:18:42;;;;;;;29.27;26.17;;;25.80;86.50;;;;;;5055893;28;20057;-71
2023/09/12 07:21:10;;;;;;;29.92;24.73;;;25.90;86.40;;;;;;5054896;28;20507;-70
2023/09/12 07:23:38;;;;;;;28.98;25.70;;;25.80;86.60;;;;;;5057106;28;20405;-70
2023/09/12 07:26:05;;;;;;;31.83;28.10;;;25.70;90.20;;;;;;5068707;28;20064;-70
2023/09/12 07:28:31;;;;;;;31.73;28.27;;;25.60;87.00;;;;;;5048768;28;20045;-70
2023/09/12 07:30:57;;;;;;;30.25;27.05;;;26.00;87.50;;;;;;5068871;28;20037;-71
2023/09/12 07:33:24;;;;;;;28.73;25.63;;;25.80;87.50;;;;;;5073341;28;20482;-71
2023/09/12 07:35:55;;;;;;;28.45;25.52;;;25.70;88.00;;;;;;5052232;28;20045;-70
2023/09/12 07:38:21;;;;;;;25.73;23.15;;;25.70;87.60;;;;;;5031839;28;20057;-71
2023/09/12 07:40:48;;;;;;;23.42;20.92;;;25.80;88.10;;;;;;5071810;28;20051;-71
2023/09/12 07:43:14;;;;;;;22.52;20.23;;;25.70;88.40;;;;;;5053030;28;20047;-69
2023/09/12 07:45:43;;;;;;;21.90;19.80;;;25.90;88.40;;;;;;5051563;28;20093;-69
2023/09/12 07:48:11;;;;;;;23.10;20.70;;;25.80;88.40;;;;;;5035481;28;20044;-71
2023/09/12 07:50:38;;;;;;;22.27;19.98;;;25.90;88.30;;;;;;5056905;28;20052;-70
2023/09/12 07:53:07;;;;;;;23.90;21.02;;;25.90;88.20;;;;;;5073409;28;20041;-70
2023/09/12 07:55:47;;;;;;;23.48;21.05;;;25.80;88.30;;;;;;5055522;28;20040;-70
2023/09/12 07:58:18;;;;;;;26.10;23.30;;;26.00;88.60;;;;;;5042574;28;20033;-69
2023/09/12 08:00:44;;;;;;;27.23;24.33;;;26.00;89.00;;;;;;5073071;28;20044;-72
2023/09/12 08:03:10;;;;;;;28.65;25.52;;;25.80;87.80;;;;;;5062838;28;20037;-71
2023/09/12 08:05:36;;;;;;;28.30;25.38;;;25.80;87.70;;;;;;5051465;28;20072;-68
2023/09/12 08:08:02;;;;;;;28.23;25.20;;;26.00;88.50;;;;;;5051876;28;20119;-70
2023/09/12 08:10:29;;;;;;;27.40;24.48;;;25.80;88.00;;;;;;5071932;28;20048;-71
2023/09/12 08:12:55;;;;;;;27.05;24.13;;;25.50;88.20;;;;;;5055174;28;20517;-70
2023/09/12 08:15:20;;;;;;;28.30;25.33;;;25.80;88.50;;;;;;5053051;28;20056;-71
2023/09/12 08:17:51;;;;;;;28.45;25.20;;;25.60;88.10;;;;;;5061673;28;20047;-61
2023/09/12 08:20:17;;;;;;;26.88;24.08;;;25.60;87.90;;;;;;5056069;28;20183;-61
2023/09/12 08:22:43;;;;;;;30.33;26.90;;;25.70;88.00;;;;;;5043618;28;20466;-69
2023/09/12 08:25:10;;;;;;;30.60;27.15;;;25.90;88.10;;;;;;5038049;28;20049;-61
2023/09/12 08:27:35;;;;;;;31.35;28.00;;;25.80;88.10;;;;;;5053977;28;20043;-61
2023/09/12 08:30:02;;;;;;;30.85;27.55;;;25.50;88.10;;;;;;5052171;28;20493;-61
2023/09/12 08:32:28;;;;;;;31.17;27.90;;;25.70;88.70;;;;;;5068436;28;20560;-72
2023/09/12 08:34:54;;;;;;;31.55;28.20;;;25.70;89.20;;;;;;5056167;28;20048;-61
2023/09/12 08:37:20;;;;;;;30.83;27.50;;;25.40;88.70;;;;;;5061370;28;20052;-61
2023/09/12 08:39:46;;;;;;;31.55;28.08;;;25.50;89.20;;;;;;5033668;28;20056;-72
2023/09/12 08:42:13;;;;;;;32.15;28.02;;;25.30;89.90;;;;;;5018242;28;20456;-61
2023/09/12 08:44:40;;;;;;;32.45;28.92;;;25.20;90.00;;;;;;5034665;28;20505;-72
2023/09/12 08:47:08;;;;;;;31.38;28.08;;;25.10;90.10;;;;;;5034702;28;20431;-71
2023/09/12 08:49:34;;;;;;;33.85;30.35;;;25.10;90.20;;;;;;5071369;28;20052;-71
2023/09/12 08:52:00;;;;;;;33.35;29.75;;;24.90;90.40;;;;;;5037752;28;20576;-71
2023/09/12 08:54:26;;;;;;;33.70;30.20;;;24.80;90.50;;;;;;5047176;28;20490;-71
2023/09/12 08:56:52;;;;;;;32.90;29.52;;;25.00;90.60;;;;;;5069687;28;20048;-63
2023/09/12 08:59:18;;;;;;;34.65;30.98;;;24.90;92.40;;;;;;5034953;28;20045;-62
2023/09/12 09:01:44;;;;;;;36.17;32.22;;;24.80;90.90;;;;;;5037101;28;20117;-63
2023/09/12 09:04:09;;;;;;;35.00;31.45;;;24.70;91.30;;;;;;5034933;28;20045;-63
2023/09/12 09:06:37;;;;;;;35.65;31.35;;;24.80;91.20;;;;;;5034525;28;20150;-71
2023/09/12 09:09:07;;;;;;;36.00;31.95;;;24.20;91.10;;;;;;5063321;28;20036;-71
2023/09/12 09:11:34;;;;;;;35.60;30.88;;;24.80;90.90;;;;;;5042189;28;20056;-69
2023/09/12 09:14:04;;;;;;;32.10;28.73;;;24.80;91.60;;;;;;5061711;28;20525;-71
2023/09/12 09:16:30;;;;;;;34.28;28.77;;;24.60;91.00;;;;;;5052010;28;20164;-71
2023/09/12 09:18:58;;;;;;;33.88;30.00;;;24.70;91.70;;;;;;5017877;28;20142;-70
2023/09/12 09:21:30;;;;;;;32.20;28.70;;;24.60;93.10;;;;;;5051100;28;20655;-70
2023/09/12 09:23:58;;;;;;;33.45;29.95;;;24.70;93.30;;;;;;5065366;28;20510;-69
2023/09/12 09:26:48;;;;;;;35.10;31.00;;;24.90;92.00;;;;;;5060037;28;20067;-72
2023/09/12 09:29:18;;;;;;;34.70;30.10;;;24.80;92.20;;;;;;5035688;28;20052;-62
2023/09/12 09:31:45;;;;;;;32.70;29.25;;;24.90;92.00;;;;;;5018086;28;20150;-62
2023/09/12 09:34:15;;;;;;;32.83;29.25;;;24.70;92.00;;;;;;5017955;28;20110;-63
2023/09/12 09:36:42;;;;;;;31.23;27.88;;;24.80;92.10;;;;;;5040270;28;20111;-63
2023/09/12 09:39:09;;;;;;;34.22;30.17;;;24.90;91.90;;;;;;5049684;28;20135;-61
2023/09/12 09:41:34;;;;;;;32.90;28.25;;;24.90;91.70;;;;;;5001364;28;20056;-63
2023/09/12 09:44:00;;;;;;;33.78;28.85;;;24.80;91.70;;;;;;5012119;28;20417;-63
2023/09/12 09:46:26;;;;;;;32.13;28.10;;;25.30;91.80;;;;;;5034718;28;20056;-71
2023/09/12 09:48:52;;;;;;;30.25;27.10;;;25.00;91.50;;;;;;5017691;28;20139;-71
2023/09/12 09:51:21;;;;;;;30.08;26.90;;;24.80;91.70;;;;;;5034736;28;20510;-70
2023/09/12 09:53:48;;;;;;;30.20;26.70;;;25.20;91.90;;;;;;5053831;28;20068;-70
2023/09/12 09:56:15;;;;;;;33.05;28.08;;;25.30;91.90;;;;;;5038333;28;20045;-70
2023/09/12 09:58:50;;;;;;;33.58;28.05;;;25.10;91.80;;;;;;5057305;28;20040;-66
2023/09/12 10:01:30;;;;;;;32.75;29.17;;;25.10;92.00;;;;;;5036478;28;20386;-71
2023/09/12 10:04:00;;;;;;;32.58;29.08;;;25.20;92.10;;;;;;5044480;28;20056;-68
2023/09/12 10:06:27;;;;;;;32.50;27.40;;;25.10;92.00;;;;;;5040520;28;20045;-72
2023/09/12 10:08:53;;;;;;;28.98;25.85;;;25.10;92.00;;;;;;5057490;28;20394;-71
2023/09/12 10:11:25;;;;;;;28.70;25.60;;;25.60;92.10;;;;;;5069052;28;20049;-74
2023/09/12 10:13:56;;;;;;;31.83;25.73;;;25.30;91.30;;;;;;5038289;28;20084;-72
2023/09/12 10:16:24;;;;;;;29.98;26.17;;;25.00;92.10;;;;;;5055239;28;20088;-73
2023/09/12 10:19:10;;;;;;;30.85;26.85;;;25.30;92.00;;;;;;5062547;28;20524;-64
2023/09/12 10:21:36;;;;;;;29.45;25.77;;;24.90;91.30;;;;;;5056137;28;20070;-64
2023/09/12 10:24:03;;;;;;;29.77;26.25;;;24.90;91.70;;;;;;5055680;28;20516;-66
2023/09/12 10:26:30;;;;;;;30.23;26.45;;;25.20;91.70;;;;;;5065867;28;20497;-68
2023/09/12 10:28:56;;;;;;;28.42;25.42;;;25.00;91.90;;;;;;5036843;28;20047;-71
2023/09/12 10:31:23;;;;;;;30.40;27.08;;;25.10;93.10;;;;;;5045043;28;20438;-70
2023/09/12 10:33:49;;;;;;;28.33;25.00;;;25.40;92.00;;;;;;5068474;28;20048;-71
2023/09/12 10:36:16;;;;;;;29.92;24.98;;;24.90;91.80;;;;;;5053573;28;20378;-63
2023/09/12 10:38:44;;;;;;;28.88;25.75;;;25.10;91.70;;;;;;5050481;28;20052;-64
2023/09/12 10:41:14;;;;;;;28.40;24.33;;;25.20;91.80;;;;;;5075130;28;20047;-62
2023/09/12 10:43:41;;;;;;;31.08;26.15;;;25.10;91.80;;;;;;5074880;28;20036;-70
2023/09/12 10:46:07;;;;;;;28.63;24.17;;;25.20;91.70;;;;;;5088884;28;20071;-67
2023/09/12 10:48:34;;;;;;;30.17;26.05;;;25.20;91.70;;;;;;5074890;28;20505;-70
2023/09/12 10:51:00;;;;;;;29.48;26.33;;;25.10;91.70;;;;;;5055594;28;20048;-71
2023/09/12 10:53:26;;;;;;;31.60;27.55;;;25.30;91.80;;;;;;5071355;28;20055;-70
2023/09/12 10:55:59;;;;;;;31.13;27.08;;;25.20;91.40;;;;;;5053946;28;20451;-69
2023/09/12 10:58:25;;;;;;;29.33;25.45;;;25.60;91.70;;;;;;5059935;28;20177;-69
2023/09/12 11:01:23;;;;;;;27.45;24.05;;;25.60;91.60;;;;;;5010451;28;20179;-70
2023/09/12 11:03:49;;;;;;;28.17;24.27;;;25.40;91.20;;;;;;5025412;28;20132;-71
2023/09/12 11:06:24;;;;;;;27.52;24.17;;;25.80;91.50;;;;;;5036628;28;20092;-69
2023/09/12 11:09:23;;;;;;;24.77;21.85;;;25.20;92.70;;;;;;5054200;28;20064;-71
2023/09/12 11:12:01;;;;;;;24.65;21.80;;;25.50;91.40;;;;;;4944231;29;20075;-70
2023/09/12 11:14:27;;;;;;;25.77;20.98;;;25.50;91.30;;;;;;4930124;29;20146;-70
2023/09/12 11:17:08;;;;;;;26.60;21.55;;;25.50;91.00;;;;;;4922253;29;20129;-71
2023/09/12 11:19:51;;;;;;;25.73;21.38;;;25.90;91.50;;;;;;4937162;28;20043;-70
2023/09/12 11:22:26;;;;;;;22.77;19.98;;;25.70;91.50;;;;;;4947127;28;20101;-62
2023/09/12 11:24:52;;;;;;;24.83;21.27;;;25.90;90.50;;;;;;4942248;29;20390;-62
2023/09/12 11:27:19;;;;;;;25.83;20.75;;;25.90;91.00;;;;;;4913406;28;20141;-70
2023/09/12 11:29:47;;;;;;;25.50;20.58;;;25.70;91.00;;;;;;4936446;29;20043;-70
2023/09/12 11:32:30;;;;;;;24.13;21.52;;;25.70;90.90;;;;;;4908273;29;20050;-63
2023/09/12 11:34:56;;;;;;;;;;;25.70;90.30;;;;;;4922186;28;20560;-64
2023/09/12 11:37:25;;;;;;;25.95;21.08;;;25.70;91.00;;;;;;4924373;28;19963;-64
2023/09/12 11:39:52;;;;;;;25.85;22.70;;;25.90;91.00;;;;;;4908260;28;20552;-62
2023/09/12 11:42:18;;;;;;;26.85;23.20;;;26.00;90.90;;;;;;4936957;28;20240;-61
2023/09/12 11:44:44;;;;;;;26.45;22.85;;;25.80;90.90;;;;;;4935524;28;20445;-63
2023/09/12 11:47:13;;;;;;;29.40;23.95;;;25.90;91.00;;;;;;4992217;28;20497;-71
2023/09/12 11:49:39;;;;;;;29.80;25.10;;;25.80;91.00;;;;;;5038560;28;20052;-61
2023/09/12 11:52:10;;;;;;;29.60;24.95;;;25.70;91.10;;;;;;5037857;28;20174;-61
2023/09/12 11:54:37;;;;;;;28.13;24.70;;;25.90;91.30;;;;;;5036277;28;20096;-61
2023/09/12 11:57:03;;;;;;;28.52;23.40;;;25.50;91.00;;;;;;5029097;28;20135;-62
2023/09/12 11:59:29;;;;;;;28.13;24.15;;;25.90;90.90;;;;;;5018938;28;20049;-71
2023/09/12 12:02:01;;;;;;;29.10;24.58;;;25.80;91.10;;;;;;5017964;28;20045;-71
2023/09/12 12:04:26;;;;;;;29.65;24.15;;;25.80;91.20;;;;;;5035517;28;20552;-62
2023/09/12 12:06:55;;;;;;;26.27;22.85;;;25.90;91.20;;;;;;5052057;28;20131;-70
2023/09/12 12:09:21;;;;;;;26.80;21.63;;;25.90;91.20;;;;;;5046486;28;20040;-63
2023/09/12 12:11:47;;;;;;;27.48;23.65;;;25.80;91.00;;;;;;5054505;28;20040;-63
2023/09/12 12:14:15;;;;;;;27.02;22.55;;;26.00;91.00;;;;;;5005393;28;20426;-72
2023/09/12 12:16:44;;;;;;;27.95;22.40;;;26.10;91.00;;;;;;5041539;28;20059;-72
2023/09/12 12:19:11;;;;;;;26.45;22.25;;;26.00;90.30;;;;;;5020884;28;20059;-71
2023/09/12 12:21:40;;;;;;;27.67;22.15;;;26.20;90.90;;;;;;5073059;28;20040;-71
2023/09/12 12:24:15;;;;;;;25.02;21.45;;;26.20;91.10;;;;;;5034405;28;20063;-63
2023/09/12 12:26:45;;;;;;;25.83;21.60;;;26.20;90.80;;;;;;5021190;28;20067;-63
2023/09/12 12:29:13;;;;;;;27.02;22.50;;;26.20;90.70;;;;;;5035061;28;20051;-71
2023/09/12 12:31:39;;;;;;;25.45;21.23;;;26.20;90.20;;;;;;5051956;28;20498;-71
2023/09/12 12:34:05;;;;;;;28.00;21.50;;;26.10;90.90;;;;;;5002824;28;20063;-72